Time;durP1;ratioP1;P1;durP2;ratioP2;P2;SDS_P1;SDS_P2;PMS_P1;PMS_P2;Temp;Humidity;BMP_temperature;BMP_pressure;BME280_temperature;BME280_humidity;BME280_pressure;Samples;Min_cycle;Max_cycle;Signal;HPM_P1;HPM_P2
2022/12/06 03:14:37;;;;;;;18.43;7.43;;;;;;;-10.42;100.00;101506.86;1796178;77;26431;-94
2022/12/06 03:17:45;;;;;;;26.37;10.57;;;;;;;-10.33;100.00;101498.06;1728675;80;21010;-93
2022/12/06 03:20:23;;;;;;;22.17;10.13;;;;;;;-10.14;100.00;101491.75;1731450;80;21050;-92
2022/12/06 03:22:56;;;;;;;26.13;11.37;;;;;;;-9.99;100.00;101500.81;1729631;80;20976;-91
2022/12/06 03:25:26;;;;;;;22.60;9.30;;;;;;;-9.81;100.00;101498.63;1736658;80;21062;-92
2022/12/06 03:28:00;;;;;;;19.97;9.00;;;;;;;-9.45;100.00;101503.48;1729827;80;20969;-94
2022/12/06 03:30:27;;;;;;;22.87;9.10;;;;;;;-9.18;100.00;101501.48;1711061;81;21024;-95
2022/12/06 03:32:55;;;;;;;19.87;8.30;;;;;;;-9.08;100.00;101499.98;1728436;82;21705;-96
2022/12/06 03:35:26;;;;;;;12.17;7.20;;;;;;;-8.89;100.00;101499.48;1638414;84;21056;-96
2022/12/06 03:38:03;;;;;;;15.20;7.17;;;;;;;-8.77;100.00;101490.42;1696137;84;21072;-95
2022/12/06 03:40:35;;;;;;;16.33;6.53;;;;;;;-8.52;100.00;101490.68;1697262;81;20957;-93
2022/12/06 03:43:05;;;;;;;16.27;7.03;;;;;;;-8.55;100.00;101498.16;1697966;81;21036;-93
2022/12/06 03:45:39;;;;;;;14.33;6.83;;;;;;;-8.47;100.00;101498.22;1668735;81;21452;-94
2022/12/06 03:48:28;;;;;;;15.93;7.07;;;;;;;-8.39;100.00;101494.45;1670693;82;21104;-94
2022/12/06 03:51:18;;;;;;;13.33;6.70;;;;;;;-8.41;100.00;101484.96;1687799;81;20960;-96
2022/12/06 03:53:52;;;;;;;13.37;6.50;;;;;;;-8.51;100.00;101483.48;1669234;82;87849;-66
2022/12/06 03:56:20;;;;;;;24.37;7.33;;;;;;;-8.57;100.00;101490.80;1657146;86;21049;-65
2022/12/06 03:58:47;;;;;;;13.43;7.20;;;;;;;-8.50;100.00;101486.55;1657114;85;21073;-64
2022/12/06 04:01:13;;;;;;;17.07;8.17;;;;;;;-8.59;100.00;101484.70;1657131;86;21093;-65
2022/12/06 04:03:40;;;;;;;14.83;8.03;;;;;;;-8.66;100.00;101489.42;1657212;85;21062;-65
2022/12/06 04:06:07;;;;;;;18.87;7.83;;;;;;;-8.52;100.00;101486.84;1656969;85;21022;-65
2022/12/06 04:08:34;;;;;;;17.80;7.37;;;;;;;-8.37;100.00;101486.48;1656971;86;21329;-65
2022/12/06 04:11:01;;;;;;;25.07;9.40;;;;;;;-8.29;100.00;101480.15;1657001;86;22127;-65
2022/12/06 04:13:29;;;;;;;20.27;8.23;;;;;;;-8.23;100.00;101470.71;1658491;85;21118;-65
2022/12/06 04:15:58;;;;;;;17.30;7.63;;;;;;;-8.05;100.00;101472.17;1705263;84;21043;-65
2022/12/06 04:18:25;;;;;;;20.90;8.58;;;;;;;-7.98;100.00;101467.94;1652109;86;21114;-65
2022/12/06 04:23:50;;;;;;;21.13;9.00;;;;;;;-7.82;100.00;101460.37;1651459;86;21259;-65
2022/12/06 04:26:19;;;;;;;16.10;7.83;;;;;;;-7.69;100.00;101461.08;1651280;86;21102;-64
2022/12/06 04:39:47;;;;;;;17.80;7.20;;;;;;;-8.00;100.00;101458.02;1651208;86;21051;-65
2022/12/06 04:44:59;;;;;;;14.60;5.50;;;;;;;-7.93;100.00;101447.76;1651207;86;21074;-64
2022/12/06 04:47:25;;;;;;;17.23;7.47;;;;;;;-8.08;100.00;101459.22;1651172;86;21078;-64
2022/12/06 04:49:52;;;;;;;19.73;9.80;;;;;;;-7.94;100.00;101439.18;1650950;86;21203;-64
2022/12/06 04:52:18;;;;;;;17.53;8.43;;;;;;;-7.97;100.00;101444.13;1651448;86;21530;-66
2022/12/06 04:54:46;;;;;;;15.80;6.90;;;;;;;-7.99;100.00;101448.27;1662423;85;21135;-65
2022/12/06 04:57:14;;;;;;;17.30;7.97;;;;;;;-8.07;100.00;101445.67;1664985;85;21049;-65
2022/12/06 04:59:42;;;;;;;14.03;6.80;;;;;;;-7.95;100.00;101451.49;1665003;86;21017;-65
2022/12/06 05:02:13;;;;;;;21.37;8.23;;;;;;;-7.85;100.00;101452.50;1665241;85;21105;-63
2022/12/06 05:04:39;;;;;;;9.70;6.10;;;;;;;-7.45;100.00;101452.25;1664781;86;21567;-64
2022/12/06 05:07:07;;;;;;;16.37;7.07;;;;;;;-7.35;100.00;101456.61;1664967;86;21560;-65
2022/12/06 05:09:34;;;;;;;17.70;8.13;;;;;;;-7.09;100.00;101456.38;1664872;86;21029;-64
2022/12/06 05:12:01;;;;;;;19.03;7.97;;;;;;;-6.74;100.00;101451.01;1665029;85;21063;-65
2022/12/06 05:14:28;;;;;;;15.10;6.57;;;;;;;-6.70;93.23;101445.26;1664996;84;21785;-66
2022/12/06 05:16:54;;;;;;;19.30;7.27;;;;;;;-6.91;92.44;101445.39;1665254;86;21090;-65
2022/12/06 05:19:21;;;;;;;19.50;8.50;;;;;;;-7.33;93.31;101447.34;1650958;86;21070;-64
2022/12/06 05:21:47;;;;;;;18.53;7.37;;;;;;;-7.39;93.28;101438.50;1651144;86;21093;-65
2022/12/06 05:24:14;;;;;;;19.20;8.13;;;;;;;-7.52;94.25;101441.56;1651172;86;21081;-66
2022/12/06 05:26:41;;;;;;;14.33;7.67;;;;;;;-7.65;95.23;101441.28;1651095;86;21263;-65
2022/12/06 05:29:07;;;;;;;27.73;9.97;;;;;;;-7.70;96.95;101441.42;1651101;86;21069;-65
2022/12/06 05:31:34;;;;;;;17.03;7.40;;;;;;;-7.67;97.07;101440.30;1651340;86;21038;-66
2022/12/06 05:34:00;;;;;;;10.40;5.40;;;;;;;-7.64;97.54;101441.75;1651037;86;21120;-66
2022/12/06 05:36:27;;;;;;;17.37;9.20;;;;;;;-7.54;99.49;101442.77;1651056;86;21152;-65
2022/12/06 05:38:53;;;;;;;24.37;8.43;;;;;;;-7.31;98.90;101435.11;1650781;86;21258;-65
2022/12/06 05:41:21;;;;;;;30.93;9.80;;;;;;;-7.11;98.35;101430.20;1653735;86;21090;-66
2022/12/06 05:43:48;;;;;;;18.17;7.23;;;;;;;-7.05;96.81;101428.86;1650818;86;21130;-66
2022/12/06 05:46:15;;;;;;;19.23;8.70;;;;;;;-6.94;95.35;101425.62;1650621;86;21137;-65
2022/12/06 05:48:43;;;;;;;14.73;7.63;;;;;;;-6.91;94.21;101423.62;1650971;86;21055;-64
2022/12/06 05:51:10;;;;;;;33.43;10.43;;;;;;;-6.80;97.64;101427.64;1651062;86;21898;-65
2022/12/06 05:53:38;;;;;;;22.70;9.33;;;;;;;-6.45;96.42;101428.62;1650854;86;21065;-66
2022/12/06 10:22:01;;;;;;;14.43;8.30;;;;;;;2.98;48.45;101179.56;1842053;75;26436;-92
2022/12/06 10:25:10;;;;;;;18.57;8.98;;;;;;;2.44;49.98;101186.74;1865444;75;21047;-90
2022/12/06 10:27:58;;;;;;;18.90;9.25;;;;;;;2.68;50.12;101182.26;1763224;76;83234;-67
2022/12/06 10:30:24;;;;;;;16.07;8.13;;;;;;;2.78;49.31;101184.97;1727895;81;21080;-66
2022/12/06 10:33:04;;;;;;;18.70;8.68;;;;;;;2.84;49.42;101179.41;1736896;81;21167;-66
2022/12/06 10:35:57;;;;;;;22.62;10.70;;;;;;;3.02;48.70;101176.15;1712517;83;21076;-66
2022/12/06 10:38:45;;;;;;;22.35;9.13;;;;;;;3.12;48.96;101176.67;1715003;83;21104;-67
2022/12/06 10:41:37;;;;;;;16.35;8.30;;;;;;;3.25;48.77;101175.52;1720874;83;21497;-66
2022/12/06 10:44:12;;;;;;;23.57;10.98;;;;;;;2.99;48.35;101172.63;1712375;83;21145;-68
2022/12/06 10:47:06;;;;;;;15.65;8.28;;;;;;;2.91;49.48;101169.95;1710511;83;22119;-68
2022/12/06 10:49:47;;;;;;;27.37;7.62;;;;;;;2.92;48.45;101167.38;1719655;83;21049;-68
2022/12/06 10:52:37;;;;;;;25.08;10.90;;;;;;;2.17;50.57;101170.34;1711278;83;21144;-67
2022/12/06 10:55:34;;;;;;;22.42;8.88;;;;;;;2.35;51.25;101161.92;1712913;83;21268;-68
2022/12/06 10:58:36;;;;;;;23.15;9.70;;;;;;;2.25;51.42;101150.51;1705638;83;21084;-66
2022/12/06 11:01:06;;;;;;;21.10;9.08;;;;;;;2.30;51.49;101153.16;1712996;83;21682;-67
2022/12/06 11:03:41;;;;;;;57.50;18.23;;;;;;;2.86;50.71;101154.30;1693953;83;21552;-67
2022/12/06 11:06:16;;;;;;;21.05;9.90;;;;;;;3.16;50.16;101145.05;1712152;83;21097;-68
2022/12/06 11:08:55;;;;;;;13.95;7.37;;;;;;;3.29;48.38;101135.61;1713989;83;21862;-68
2022/12/06 11:11:29;;;;;;;23.38;9.90;;;;;;;2.75;49.39;101138.98;1718972;83;21091;-67
2022/12/06 11:14:03;;;;;;;20.75;10.18;;;;;;;2.02;51.71;101125.94;1710264;83;21088;-67
2022/12/06 11:16:35;;;;;;;19.60;10.40;;;;;;;1.92;51.80;101133.17;1688617;83;21082;-66
2022/12/06 11:19:16;;;;;;;23.35;9.98;;;;;;;2.05;51.71;101139.00;1696018;83;21659;-67
2022/12/06 11:21:54;;;;;;;22.48;10.05;;;;;;;1.91;52.08;101135.30;1698344;83;21135;-68
2022/12/06 11:24:28;;;;;;;22.35;10.53;;;;;;;1.87;52.67;101113.19;1672821;84;21097;-67
2022/12/06 11:27:12;;;;;;;22.70;10.72;;;;;;;1.87;52.67;101113.19;1679454;85;21089;-68
2022/12/06 11:29:41;;;;;;;18.37;9.18;;;;;;;2.23;52.41;101112.36;1675236;84;21085;-68
2022/12/06 11:32:07;;;;;;;57.05;16.65;;;;;;;2.51;51.77;101099.29;1679498;85;21163;-67
2022/12/06 11:34:48;;;;;;;21.95;8.80;;;;;;;2.51;51.77;101099.29;1679492;85;21144;-66
2022/12/06 11:37:18;;;;;;;19.37;9.38;;;;;;;2.40;50.99;101095.69;1675109;84;26501;-67
2022/12/06 11:39:46;;;;;;;26.57;12.20;;;;;;;2.18;52.41;101090.20;1679823;85;21948;-67
2022/12/06 11:42:16;;;;;;;32.08;14.60;;;;;;;2.85;52.31;101077.52;1675155;84;21597;-67
2022/12/06 11:44:50;;;;;;;22.95;12.03;;;;;;;2.85;52.31;101077.52;1664013;84;21005;-67
2022/12/06 11:47:21;;;;;;;26.07;12.10;;;;;;;3.40;50.51;101074.08;1658957;84;21199;-68
2022/12/06 11:49:49;;;;;;;;;;;;;;;3.69;49.22;101070.83;1682045;85;21045;-65
2022/12/06 11:52:37;;;;;;;29.92;13.25;;;;;;;3.82;49.43;101076.96;1679497;85;20167;-67
2022/12/06 11:55:08;;;;;;;23.20;11.30;;;;;;;3.35;49.05;101070.58;1679239;85;21056;-67
2022/12/06 11:57:39;;;;;;;24.90;9.05;;;;;;;3.13;49.57;101067.81;1677922;84;21400;-67
2022/12/06 12:00:20;;;;;;;26.00;10.70;;;;;;;2.70;50.87;101070.01;1651273;85;21754;-67
2022/12/06 12:02:48;;;;;;;23.60;10.45;;;;;;;2.33;51.79;101066.14;1675042;84;21112;-67
2022/12/06 12:05:33;;;;;;;21.35;9.78;;;;;;;2.48;52.30;101060.23;1674486;84;21801;-68
2022/12/06 12:08:02;;;;;;;27.58;11.55;;;;;;;2.64;51.91;101056.93;1679165;84;21129;-67
2022/12/06 12:10:40;;;;;;;32.23;11.45;;;;;;;2.89;51.06;101049.38;1678832;84;21026;-67
2022/12/06 12:16:18;;;;;;;26.62;11.68;;;;;;;2.12;52.88;101043.37;1690171;84;21084;-67
2022/12/06 12:19:01;;;;;;;23.90;10.05;;;;;;;2.23;52.88;101036.58;1666886;84;21664;-67
2022/12/06 12:21:36;;;;;;;24.43;11.12;;;;;;;1.89;53.16;101036.16;1685122;84;21129;-68
2022/12/06 12:24:04;;;;;;;25.88;11.05;;;;;;;1.79;54.28;101027.78;1686007;84;21211;-67
2022/12/06 12:26:38;;;;;;;29.00;11.57;;;;;;;1.94;53.92;101024.53;1686138;84;21197;-67
2022/12/06 12:29:15;;;;;;;23.47;10.93;;;;;;;2.22;54.00;101025.72;1688501;84;21116;-67
2022/12/06 12:31:55;;;;;;;23.30;10.85;;;;;;;2.30;53.50;101020.20;1688925;84;21222;-67
2022/12/06 12:34:28;;;;;;;27.35;9.15;;;;;;;2.34;52.92;101020.22;1682673;84;21197;-66
2022/12/06 12:37:03;;;;;;;25.25;11.40;;;;;;;1.99;53.66;101025.88;1684127;84;21119;-67
2022/12/06 12:39:38;;;;;;;21.23;10.88;;;;;;;1.82;54.55;101021.35;1686414;83;21144;-67
2022/12/06 12:42:27;;;;;;;19.48;9.80;;;;;;;2.04;54.42;101021.61;1682799;84;21072;-67
2022/12/06 12:44:58;;;;;;;22.42;10.25;;;;;;;2.27;54.34;101018.84;1685111;84;21088;-67
2022/12/06 12:47:25;;;;;;;23.90;11.77;;;;;;;2.22;53.32;101017.92;1687021;84;21778;-67
2022/12/06 12:50:19;;;;;;;25.50;10.90;;;;;;;2.10;53.51;101016.50;1688938;84;21088;-67
2022/12/06 12:52:46;;;;;;;25.85;10.50;;;;;;;2.07;54.80;101020.34;1684873;84;21230;-68
2022/12/06 12:55:19;;;;;;;24.18;10.70;;;;;;;2.27;54.18;101022.73;1681065;84;21081;-67
2022/12/06 12:57:49;;;;;;;18.70;8.75;;;;;;;2.11;53.56;101026.02;1680772;84;21612;-66
2022/12/06 13:00:26;;;;;;;33.33;11.30;;;;;;;1.87;54.39;101031.37;1682239;84;21057;-68
2022/12/06 13:03:02;;;;;;;21.00;9.73;;;;;;;1.23;55.57;101022.23;1691126;84;21120;-67
2022/12/06 13:05:31;;;;;;;19.80;9.03;;;;;;;1.09;56.30;101017.70;1689682;84;21143;-67
2022/12/06 13:08:17;;;;;;;22.60;9.25;;;;;;;0.93;57.07;101023.92;1690325;84;21211;-67
2022/12/06 13:10:47;;;;;;;29.45;11.57;;;;;;;0.57;57.96;101019.84;1683948;84;21120;-67
2022/12/06 13:13:28;;;;;;;25.95;11.43;;;;;;;0.42;58.57;101026.06;1692759;84;21144;-68
2022/12/06 13:15:55;;;;;;;25.40;9.88;;;;;;;0.00;59.62;101020.50;1712614;83;21061;-68
2022/12/06 13:18:34;;;;;;;30.50;13.68;;;;;;;-0.47;61.26;101020.35;1710194;83;21221;-68
2022/12/06 13:21:05;;;;;;;27.42;12.47;;;;;;;-0.63;62.16;101017.84;1714696;82;21002;-67
2022/12/06 13:23:34;;;;;;;32.85;13.25;;;;;;;-1.08;63.00;101016.80;1711351;83;21100;-67
2022/12/06 13:26:24;;;;;;;20.70;10.63;;;;;;;-1.58;66.28;101020.68;1710474;83;21101;-67
2022/12/06 13:28:57;;;;;;;;;;;;;;;-1.66;67.44;101024.75;1720245;83;21103;-68
2022/12/06 13:31:30;;;;;;;19.87;9.58;;;;;;;-1.83;68.11;101018.71;1716806;83;21847;-66
2022/12/06 13:34:01;;;;;;;23.45;11.18;;;;;;;-2.08;69.92;101013.28;1718257;83;21660;-68
2022/12/06 13:36:30;;;;;;;23.50;12.37;;;;;;;-2.22;71.07;101019.33;1718251;83;21096;-68
2022/12/06 13:38:57;;;;;;;22.98;9.60;;;;;;;-2.34;71.99;101027.59;1720440;83;21696;-68
2022/12/06 13:44:52;;;;;;;26.55;10.50;;;;;;;-2.97;76.20;101017.03;1713616;83;21564;-68
2022/12/06 13:47:34;;;;;;;26.30;11.63;;;;;;;-3.10;77.86;101013.20;1713841;83;22124;-67
2022/12/06 13:50:18;;;;;;;24.37;12.20;;;;;;;-3.13;78.82;101010.92;1715209;83;21064;-67
2022/12/06 13:52:50;;;;;;;25.03;10.20;;;;;;;-3.13;79.06;101010.92;1711781;83;21183;-67
2022/12/06 13:55:28;;;;;;;26.30;11.67;;;;;;;-3.14;78.99;101012.63;1713111;83;21624;-67
2022/12/06 13:58:03;;;;;;;25.13;12.03;;;;;;;-3.07;78.97;101007.27;1712279;83;21599;-67
2022/12/06 14:00:38;;;;;;;29.60;12.57;;;;;;;-3.08;79.69;101006.78;1710254;83;21068;-68
2022/12/06 14:03:23;;;;;;;30.80;13.67;;;;;;;-3.02;78.60;101007.00;1713665;83;21338;-66
2022/12/06 14:06:11;;;;;;;30.97;13.73;;;;;;;-3.08;78.53;101006.78;1714884;83;21064;-68
2022/12/06 14:08:45;;;;;;;37.05;17.35;;;;;;;-3.05;78.01;101009.48;1719455;83;21057;-65
2022/12/06 18:18:11;;;;;;;50.40;23.03;;;;;;;-7.22;100.00;100847.29;1796079;77;26549;-94
2022/12/06 18:20:39;;;;;;;57.50;23.33;;;;;;;-7.02;100.00;100846.48;1687361;79;89858;-68
2022/12/06 18:23:06;;;;;;;56.57;25.43;;;;;;;-6.82;100.00;100840.98;1676271;84;21210;-68
2022/12/06 18:25:38;;;;;;;60.33;24.40;;;;;;;-6.62;100.00;100851.25;1689619;84;21119;-67
2022/12/06 18:28:05;;;;;;;61.73;24.47;;;;;;;-6.40;100.00;100845.34;1682994;84;21124;-67
2022/12/06 18:30:32;;;;;;;61.70;23.80;;;;;;;-6.14;100.00;100843.48;1669473;84;21060;-68
2022/12/06 18:33:00;;;;;;;87.20;29.73;;;;;;;-5.86;100.00;100834.75;1677764;84;21542;-68
2022/12/06 18:35:34;;;;;;;76.03;28.80;;;;;;;-5.64;100.00;100828.77;1666987;84;21110;-69
2022/12/06 18:38:01;;;;;;;74.80;27.17;;;;;;;-5.38;100.00;100829.77;1650949;84;21221;-68
2022/12/06 18:40:31;;;;;;;87.60;30.57;;;;;;;-5.18;100.00;100830.53;1687020;84;21139;-68
2022/12/06 18:42:58;;;;;;;48.33;20.02;;;;;;;-4.91;100.00;100830.28;1682233;84;21047;-68
2022/12/06 18:45:24;;;;;;;46.40;21.00;;;;;;;-4.57;100.00;100823.79;1675177;84;21051;-68
2022/12/06 18:47:51;;;;;;;67.40;25.93;;;;;;;-4.20;100.00;100823.77;1668112;84;21248;-68
2022/12/06 18:50:18;;;;;;;53.67;22.20;;;;;;;-4.13;100.00;100815.43;1667399;84;21088;-69
2022/12/06 18:52:44;;;;;;;51.60;19.93;;;;;;;-3.94;100.00;100817.33;1675987;84;21130;-69
2022/12/06 18:55:11;;;;;;;46.35;20.80;;;;;;;-3.89;100.00;100812.80;1682701;84;21071;-68
2022/12/06 18:57:37;;;;;;;81.60;36.60;;;;;;;-3.96;100.00;100810.83;1685731;84;21114;-70
2022/12/06 19:00:05;;;;;;;54.27;24.20;;;;;;;-3.95;100.00;100807.45;1667012;84;21255;-68
2022/12/06 19:02:32;;;;;;;60.03;31.35;;;;;;;-3.91;100.00;100800.69;1672028;84;21070;-69
2022/12/06 19:04:59;;;;;;;69.73;37.30;;;;;;;-3.99;100.00;100794.44;1686734;84;21138;-68
2022/12/06 19:07:26;;;;;;;70.10;33.97;;;;;;;-4.07;100.00;100794.16;1675183;84;21559;-68
2022/12/06 19:09:52;;;;;;;62.90;27.03;;;;;;;-4.13;100.00;100796.56;1667859;84;21347;-68
2022/12/06 19:12:19;;;;;;;49.77;20.50;;;;;;;-4.04;100.00;100802.87;1667336;84;21315;-67
2022/12/06 19:14:46;;;;;;;52.97;22.13;;;;;;;-4.11;100.00;100791.92;1666917;84;21567;-68
2022/12/06 19:17:12;;;;;;;62.27;22.30;;;;;;;-4.23;100.00;100786.38;1678450;84;21159;-70
2022/12/06 19:19:39;;;;;;;46.97;20.03;;;;;;;-4.12;100.00;100785.02;1656926;83;21064;-68
2022/12/06 19:22:06;;;;;;;61.97;26.03;;;;;;;-4.10;100.00;100779.92;1639485;86;21115;-71
2022/12/06 19:24:34;;;;;;;67.47;27.23;;;;;;;-4.13;100.00;100779.42;1647150;86;21168;-69
2022/12/06 19:27:00;;;;;;;53.97;21.97;;;;;;;-4.10;100.00;100766.64;1642911;86;21134;-69
2022/12/06 19:29:27;;;;;;;42.60;18.70;;;;;;;-4.22;100.00;100767.55;1649196;86;21242;-69
2022/12/06 19:31:54;;;;;;;60.70;22.47;;;;;;;-4.10;100.00;100760.63;1643768;86;21497;-69
2022/12/06 19:34:23;;;;;;;46.80;18.90;;;;;;;-4.11;100.00;100762.34;1642072;86;21083;-69
2022/12/06 19:36:52;;;;;;;44.50;16.77;;;;;;;-4.15;100.00;100760.48;1649384;86;21111;-69
2022/12/06 19:39:19;;;;;;;39.57;15.77;;;;;;;-4.16;100.00;100761.33;1658507;86;21170;-69
2022/12/06 19:44:31;;;;;;;64.23;22.70;;;;;;;-4.18;100.00;100751.39;1637329;86;21237;-69
2022/12/06 19:46:58;;;;;;;70.63;24.70;;;;;;;-4.07;100.00;100746.19;1643461;85;22328;-69
2022/12/06 19:49:25;;;;;;;103.83;32.47;;;;;;;-4.14;100.00;100746.81;1647575;86;21217;-69
2022/12/06 19:51:52;;;;;;;98.77;32.23;;;;;;;-4.10;100.00;100741.34;1650834;86;21059;-70
2022/12/06 19:54:23;;;;;;;197.73;53.93;;;;;;;-4.08;100.00;100739.70;1647406;86;21056;-68
2022/12/06 19:56:55;;;;;;;54.27;21.83;;;;;;;-4.14;100.00;100744.25;1648752;86;21615;-67
2022/12/06 19:59:24;;;;;;;48.73;19.60;;;;;;;-4.09;100.00;100745.26;1650937;86;21111;-68
2022/12/06 20:01:51;;;;;;;50.60;21.17;;;;;;;-4.14;100.00;100741.67;1658394;86;21737;-69
2022/12/06 20:04:21;;;;;;;56.30;22.60;;;;;;;-4.11;100.00;100726.33;1647558;86;21114;-70
2022/12/06 20:06:49;;;;;;;87.40;34.35;;;;;;;-4.24;100.00;100730.19;1640455;86;21119;-67
2022/12/06 20:09:16;;;;;;;148.10;54.43;;;;;;;-4.24;100.00;100719.90;1653860;86;21106;-68
2022/12/06 20:12:00;;;;;;;51.77;22.93;;;;;;;-4.12;100.00;100718.55;1641398;85;21091;-67
2022/12/06 20:14:37;;;;;;;55.80;21.60;;;;;;;-4.19;100.00;100722.63;1643436;86;21186;-69
2022/12/06 20:17:07;;;;;;;64.67;26.93;;;;;;;-4.18;100.00;100723.52;1647456;86;21084;-67
2022/12/06 20:19:34;;;;;;;92.67;38.27;;;;;;;-4.20;100.00;100714.45;1650361;86;21093;-68
2022/12/06 20:22:04;;;;;;;51.87;20.80;;;;;;;-4.06;100.00;100718.75;1651438;86;21128;-68
2022/12/06 20:24:31;;;;;;;49.97;20.27;;;;;;;-4.07;100.00;100716.98;1643449;86;22212;-69
2022/12/06 20:26:57;;;;;;;53.87;24.03;;;;;;;-4.09;100.00;100706.67;1648762;86;21593;-68
2022/12/06 20:29:25;;;;;;;68.70;30.37;;;;;;;-4.07;100.00;100710.17;1661094;86;21685;-68
2022/12/06 20:31:54;;;;;;;48.93;21.10;;;;;;;-3.88;100.00;100711.61;1649813;86;21108;-68
2022/12/06 20:34:21;;;;;;;42.07;17.13;;;;;;;-3.72;100.00;100710.80;1641539;86;21115;-68
2022/12/06 20:36:48;;;;;;;46.85;20.25;;;;;;;-3.57;100.00;100701.35;1641673;86;21056;-69
2022/12/06 20:39:22;;;;;;;48.33;20.93;;;;;;;-3.35;100.00;100713.16;1639391;86;21208;-68
2022/12/06 20:41:49;;;;;;;44.27;20.37;;;;;;;-3.26;100.00;100710.42;1647702;86;21210;-69
2022/12/06 20:44:16;;;;;;;37.97;16.93;;;;;;;-3.14;100.00;100712.47;1643239;86;21142;-69
2022/12/06 20:46:42;;;;;;;48.70;20.23;;;;;;;-3.04;100.00;100715.73;1661502;86;21653;-68
2022/12/06 20:49:09;;;;;;;51.70;20.50;;;;;;;-3.07;100.00;100706.64;1649671;86;21027;-69
2022/12/06 20:51:35;;;;;;;35.20;19.97;;;;;;;-3.33;100.00;100707.22;1653534;86;21314;-68
2022/12/06 20:54:05;;;;;;;38.67;21.00;;;;;;;-3.56;100.00;100710.84;1656407;86;21063;-69
2022/12/06 20:56:37;;;;;;;46.90;21.70;;;;;;;-3.63;100.00;100708.07;1650200;86;21055;-69
2022/12/06 20:59:05;;;;;;;51.77;24.00;;;;;;;-3.86;100.00;100703.94;1654387;86;21122;-68
2022/12/06 21:01:40;;;;;;;42.27;20.23;;;;;;;-4.04;100.00;100710.25;1643739;86;21181;-69
2022/12/06 21:04:07;;;;;;;64.03;32.10;;;;;;;-4.15;100.00;100711.61;1646765;86;21103;-67
2022/12/06 21:06:34;;;;;;;52.30;26.07;;;;;;;-4.30;100.00;100707.25;1639340;86;21804;-68
2022/12/06 21:09:01;;;;;;;40.97;20.83;;;;;;;-4.27;100.00;100704.80;1647844;86;21118;-68
2022/12/06 21:11:28;;;;;;;50.87;20.87;;;;;;;-4.45;100.00;100698.64;1650127;86;21623;-67
2022/12/06 21:13:56;;;;;;;34.90;18.13;;;;;;;-4.46;100.00;100692.63;1645126;86;21098;-69
2022/12/06 21:16:28;;;;;;;34.60;17.87;;;;;;;-4.50;100.00;100689.50;1612218;88;21253;-68
2022/12/06 21:19:02;;;;;;;46.70;19.30;;;;;;;-4.55;100.00;100687.19;1612575;88;21652;-68
2022/12/06 21:21:35;;;;;;;44.17;18.40;;;;;;;-4.60;100.00;100684.89;1629256;87;21041;-68
2022/12/06 21:24:12;;;;;;;36.50;16.53;;;;;;;-4.61;100.00;100688.69;1617061;87;21163;-69
2022/12/06 21:26:39;;;;;;;44.97;18.07;;;;;;;-4.55;100.00;100678.62;1613984;88;21093;-68
2022/12/06 21:29:05;;;;;;;32.47;15.60;;;;;;;-4.64;100.00;100676.61;1596957;88;21212;-69
2022/12/06 21:31:36;;;;;;;30.93;15.40;;;;;;;-4.64;100.00;100676.61;1645095;85;21619;-69
2022/12/06 21:34:03;;;;;;;39.40;16.47;;;;;;;-4.67;100.00;100671.34;1647354;85;21745;-67
2022/12/06 21:36:30;;;;;;;56.73;25.20;;;;;;;-4.77;100.00;100669.30;1641876;85;21065;-69
2022/12/06 21:38:57;;;;;;;44.90;17.90;;;;;;;-4.59;100.00;100677.63;1608476;87;21072;-68
2022/12/06 21:41:23;;;;;;;32.33;14.53;;;;;;;-4.53;100.00;100662.41;1610123;88;21257;-67
2022/12/06 21:43:50;;;;;;;33.03;15.43;;;;;;;-4.46;100.00;100654.08;1610700;87;21101;-67
2022/12/06 21:46:20;;;;;;;41.57;16.77;;;;;;;-4.37;100.00;100651.31;1611829;88;21743;-69
2022/12/06 21:48:51;;;;;;;39.23;16.83;;;;;;;-4.47;100.00;100649.73;1616801;87;21616;-67
2022/12/06 21:51:18;;;;;;;46.73;19.87;;;;;;;-4.30;100.00;100650.29;1633702;87;21087;-68
2022/12/06 21:53:44;;;;;;;54.33;22.30;;;;;;;-4.27;100.00;100640.51;1636109;87;21117;-67
2022/12/06 21:56:14;;;;;;;41.37;16.87;;;;;;;-4.13;100.00;100635.79;1634139;87;21115;-69
2022/12/06 21:58:41;;;;;;;38.42;17.12;;;;;;;-4.29;100.00;100638.30;1622376;87;21589;-68
2022/12/06 22:01:10;;;;;;;43.80;19.30;;;;;;;-4.19;100.00;100626.59;1634323;87;21134;-67
2022/12/06 22:03:37;;;;;;;35.13;13.07;;;;;;;-4.29;100.00;100622.87;1634475;87;21779;-69
2022/12/06 22:06:08;;;;;;;29.77;14.27;;;;;;;-4.47;100.00;100625.73;1600688;87;21855;-69
2022/12/06 22:08:37;;;;;;;;;;;;;;;-4.67;100.00;100627.66;1635328;87;21156;-68
2022/12/06 22:11:09;;;;;;;52.10;17.67;;;;;;;-4.74;100.00;100611.58;1658056;85;20229;-67
